Terminal Aerodrome Forecast
Issued by NWS Burlington, VT

Home | Current Version | Previous Version | Text Only | Print | Product List | Glossary On
Versions: 1 2 3 4 5 6 7 8 9 10 11 12 13 14 15 16
368
FTUS41 KBTV 271126
TAFBTV
TAF
KBTV 271126Z 2712/2812 18006KT P6SM SCT150
     FM272100 19008KT P6SM VCSH BKN050
     FM280300 VRB04KT P6SM SCT050
     FM280800 VRB03KT P6SM BKN020=

USA.gov is the U.S. government's official web portal to all federal, state and local government web resources and services.